sensor_id;sensor_type;location;lat;lon;timestamp;pressure;altitude;pressure_sealevel;temperature;humidity
39793;BME280;26080;42.264;24.536;2024-03-22T00:00:38;99508.84;;;3.71;100.00
39793;BME280;26080;42.264;24.536;2024-03-22T00:03:04;99509.81;;;3.62;100.00
39793;BME280;26080;42.264;24.536;2024-03-22T00:05:29;99503.16;;;3.47;100.00
39793;BME280;26080;42.264;24.536;2024-03-22T00:07:55;99498.06;;;3.43;100.00
39793;BME280;26080;42.264;24.536;2024-03-22T00:10:21;99503.00;;;3.58;100.00
39793;BME280;26080;42.264;24.536;2024-03-22T00:12:46;99502.84;;;3.66;100.00
39793;BME280;26080;42.264;24.536;2024-03-22T00:15:12;99505.59;;;3.58;100.00
39793;BME280;26080;42.264;24.536;2024-03-22T00:17:37;99498.75;;;3.52;100.00
39793;BME280;26080;42.264;24.536;2024-03-22T00:20:03;99463.59;;;3.38;100.00
39793;BME280;26080;42.264;24.536;2024-03-22T00:22:28;99490.28;;;3.43;100.00
39793;BME280;26080;42.264;24.536;2024-03-22T00:24:54;99492.00;;;3.42;100.00
39793;BME280;26080;42.264;24.536;2024-03-22T00:27:19;99484.41;;;3.32;100.00
39793;BME280;26080;42.264;24.536;2024-03-22T00:29:44;99496.59;;;3.23;100.00
39793;BME280;26080;42.264;24.536;2024-03-22T00:32:10;99496.81;;;3.08;100.00
39793;BME280;26080;42.264;24.536;2024-03-22T00:34:35;99490.97;;;2.94;100.00
39793;BME280;26080;42.264;24.536;2024-03-22T00:37:01;99487.47;;;2.98;100.00
39793;BME280;26080;42.264;24.536;2024-03-22T00:39:26;99496.97;;;2.96;100.00
39793;BME280;26080;42.264;24.536;2024-03-22T00:41:51;99497.84;;;2.96;100.00
39793;BME280;26080;42.264;24.536;2024-03-22T00:44:17;99495.34;;;2.90;100.00
39793;BME280;26080;42.264;24.536;2024-03-22T00:46:42;99496.97;;;2.96;100.00
39793;BME280;26080;42.264;24.536;2024-03-22T00:49:08;99495.13;;;3.07;100.00
39793;BME280;26080;42.264;24.536;2024-03-22T00:51:33;99489.00;;;3.11;100.00
39793;BME280;26080;42.264;24.536;2024-03-22T00:53:58;99494.06;;;3.20;100.00
39793;BME280;26080;42.264;24.536;2024-03-22T00:56:24;99494.09;;;3.19;100.00
39793;BME280;26080;42.264;24.536;2024-03-22T00:58:49;99501.81;;;3.22;100.00
39793;BME280;26080;42.264;24.536;2024-03-22T01:01:15;99502.06;;;3.05;100.00
39793;BME280;26080;42.264;24.536;2024-03-22T01:03:40;99497.75;;;3.04;100.00
39793;BME280;26080;42.264;24.536;2024-03-22T01:06:05;99500.50;;;2.92;100.00
39793;BME280;26080;42.264;24.536;2024-03-22T01:08:32;99508.47;;;2.77;100.00
39793;BME280;26080;42.264;24.536;2024-03-22T01:10:57;99499.00;;;2.76;100.00
39793;BME280;26080;42.264;24.536;2024-03-22T01:13:23;99502.38;;;2.81;100.00
39793;BME280;26080;42.264;24.536;2024-03-22T01:15:48;99505.72;;;2.89;100.00
39793;BME280;26080;42.264;24.536;2024-03-22T01:18:14;99504.00;;;2.88;100.00
39793;BME280;26080;42.264;24.536;2024-03-22T01:20:39;99502.28;;;2.87;100.00
39793;BME280;26080;42.264;24.536;2024-03-22T01:23:04;99506.41;;;3.02;100.00
39793;BME280;26080;42.264;24.536;2024-03-22T01:25:30;99485.63;;;3.08;100.00
39793;BME280;26080;42.264;24.536;2024-03-22T01:27:55;99509.63;;;3.19;100.00
39793;BME280;26080;42.264;24.536;2024-03-22T01:30:21;99511.19;;;3.27;100.00
39793;BME280;26080;42.264;24.536;2024-03-22T01:32:47;99512.06;;;3.30;100.00
39793;BME280;26080;42.264;24.536;2024-03-22T01:35:12;99508.53;;;3.34;100.00
39793;BME280;26080;42.264;24.536;2024-03-22T01:37:37;99501.59;;;3.36;100.00
39793;BME280;26080;42.264;24.536;2024-03-22T01:40:03;99475.06;;;3.21;100.00
39793;BME280;26080;42.264;24.536;2024-03-22T01:42:31;99511.97;;;3.36;100.00
39793;BME280;26080;42.264;24.536;2024-03-22T01:44:57;99512.03;;;3.31;100.00
39793;BME280;26080;42.264;24.536;2024-03-22T01:47:22;99512.91;;;3.28;100.00
39793;BME280;26080;42.264;24.536;2024-03-22T01:49:50;99519.91;;;3.22;100.00
39793;BME280;26080;42.264;24.536;2024-03-22T01:52:16;99524.16;;;3.26;100.00
39793;BME280;26080;42.264;24.536;2024-03-22T01:54:41;99526.81;;;3.23;100.00
39793;BME280;26080;42.264;24.536;2024-03-22T01:57:08;99513.88;;;3.21;100.00
39793;BME280;26080;42.264;24.536;2024-03-22T01:59:33;99516.56;;;3.17;100.00
39793;BME280;26080;42.264;24.536;2024-03-22T02:01:59;99476.25;;;2.99;100.00
39793;BME280;26080;42.264;24.536;2024-03-22T02:04:25;99514.00;;;3.15;100.00
39793;BME280;26080;42.264;24.536;2024-03-22T02:06:50;99495.00;;;3.13;100.00
39793;BME280;26080;42.264;24.536;2024-03-22T02:09:15;99498.47;;;3.12;100.00
39793;BME280;26080;42.264;24.536;2024-03-22T02:11:42;99475.34;;;3.00;100.00
39793;BME280;26080;42.264;24.536;2024-03-22T02:14:07;99460.75;;;2.96;100.00
39793;BME280;26080;42.264;24.536;2024-03-22T02:16:33;99498.53;;;3.09;100.00
39793;BME280;26080;42.264;24.536;2024-03-22T02:18:58;99502.94;;;3.03;100.00
39793;BME280;26080;42.264;24.536;2024-03-22T02:21:24;99456.00;;;2.65;100.00
39793;BME280;26080;42.264;24.536;2024-03-22T02:23:49;99507.38;;;2.93;100.00
39793;BME280;26080;42.264;24.536;2024-03-22T02:26:14;99507.44;;;2.87;100.00
39793;BME280;26080;42.264;24.536;2024-03-22T02:28:40;99512.78;;;2.76;100.00
39793;BME280;26080;42.264;24.536;2024-03-22T02:31:05;99506.97;;;2.56;100.00
39793;BME280;26080;42.264;24.536;2024-03-22T02:33:31;99507.09;;;2.44;100.00
39793;BME280;26080;42.264;24.536;2024-03-22T02:35:56;99466.97;;;2.12;100.00
39793;BME280;26080;42.264;24.536;2024-03-22T02:38:22;99507.09;;;2.48;100.00
39793;BME280;26080;42.264;24.536;2024-03-22T02:40:49;99513.19;;;2.40;100.00
39793;BME280;26080;42.264;24.536;2024-03-22T02:43:14;99514.13;;;2.31;100.00
39793;BME280;26080;42.264;24.536;2024-03-22T02:45:40;99530.59;;;2.24;100.00
39793;BME280;26080;42.264;24.536;2024-03-22T02:48:06;99543.50;;;2.25;100.00
39793;BME280;26080;42.264;24.536;2024-03-22T02:50:36;99532.41;;;2.14;100.00
39793;BME280;26080;42.264;24.536;2024-03-22T02:53:03;99534.28;;;1.98;100.00
39793;BME280;26080;42.264;24.536;2024-03-22T02:55:28;99534.41;;;1.85;100.00
39793;BME280;26080;42.264;24.536;2024-03-22T02:57:56;99528.44;;;1.80;100.00
39793;BME280;26080;42.264;24.536;2024-03-22T03:00:22;99512.06;;;1.79;100.00
39793;BME280;26080;42.264;24.536;2024-03-22T03:02:47;99529.25;;;1.83;100.00
39793;BME280;26080;42.264;24.536;2024-03-22T03:05:13;99525.09;;;1.64;100.00
39793;BME280;26080;42.264;24.536;2024-03-22T03:07:38;99527.78;;;1.52;100.00
39793;BME280;26080;42.264;24.536;2024-03-22T03:10:04;99530.34;;;1.53;100.00
39793;BME280;26080;42.264;24.536;2024-03-22T03:12:29;99541.44;;;1.64;100.00
39793;BME280;26080;42.264;24.536;2024-03-22T03:14:55;99534.56;;;1.62;100.00
39793;BME280;26080;42.264;24.536;2024-03-22T03:17:20;99541.53;;;1.52;100.00
39793;BME280;26080;42.264;24.536;2024-03-22T03:19:46;99535.59;;;1.42;100.00
39793;BME280;26080;42.264;24.536;2024-03-22T03:22:11;99539.06;;;1.34;100.00
39793;BME280;26080;42.264;24.536;2024-03-22T03:24:37;99541.63;;;1.41;100.00
39793;BME280;26080;42.264;24.536;2024-03-22T03:27:02;99546.78;;;1.41;100.00
39793;BME280;26080;42.264;24.536;2024-03-22T03:29:28;99507.41;;;1.06;100.00
39793;BME280;26080;42.264;24.536;2024-03-22T03:31:53;99546.88;;;1.23;100.00
39793;BME280;26080;42.264;24.536;2024-03-22T03:34:19;99547.72;;;1.22;100.00
39793;BME280;26080;42.264;24.536;2024-03-22T03:36:45;99552.03;;;1.23;100.00
39793;BME280;26080;42.264;24.536;2024-03-22T03:39:11;99553.72;;;1.30;100.00
39793;BME280;26080;42.264;24.536;2024-03-22T03:41:36;99557.91;;;1.46;100.00
39793;BME280;26080;42.264;24.536;2024-03-22T03:44:02;99560.47;;;1.49;100.00
39793;BME280;26080;42.264;24.536;2024-03-22T03:46:27;99560.44;;;1.56;100.00
39793;BME280;26080;42.264;24.536;2024-03-22T03:48:52;99557.91;;;1.51;100.00
39793;BME280;26080;42.264;24.536;2024-03-22T03:51:18;99558.75;;;1.48;100.00
39793;BME280;26080;42.264;24.536;2024-03-22T03:53:43;99557.94;;;1.45;100.00
39793;BME280;26080;42.264;24.536;2024-03-22T03:56:09;99560.56;;;1.37;100.00
39793;BME280;26080;42.264;24.536;2024-03-22T03:58:34;99557.03;;;1.47;100.00
39793;BME280;26080;42.264;24.536;2024-03-22T04:01:05;99533.09;;;1.29;100.00
39793;BME280;26080;42.264;24.536;2024-03-22T04:03:30;99565.63;;;1.53;100.00
39793;BME280;26080;42.264;24.536;2024-03-22T04:05:57;99563.06;;;1.48;100.00
39793;BME280;26080;42.264;24.536;2024-03-22T04:08:23;99576.06;;;1.34;100.00
39793;BME280;26080;42.264;24.536;2024-03-22T04:10:55;99579.47;;;1.36;100.00
39793;BME280;26080;42.264;24.536;2024-03-22T04:13:24;99530.59;;;1.09;100.00
39793;BME280;26080;42.264;24.536;2024-03-22T04:15:50;99548.63;;;1.18;100.00
39793;BME280;26080;42.264;24.536;2024-03-22T04:18:16;99578.66;;;1.30;100.00
39793;BME280;26080;42.264;24.536;2024-03-22T04:20:41;99591.59;;;1.21;100.00
39793;BME280;26080;42.264;24.536;2024-03-22T04:23:08;99589.06;;;1.08;100.00
39793;BME280;26080;42.264;24.536;2024-03-22T04:25:33;99592.50;;;1.15;100.00
39793;BME280;26080;42.264;24.536;2024-03-22T04:27:59;99573.66;;;0.95;100.00
39793;BME280;26080;42.264;24.536;2024-03-22T04:30:24;99598.63;;;0.89;100.00
39793;BME280;26080;42.264;24.536;2024-03-22T04:32:50;99596.06;;;0.82;100.00
39793;BME280;26080;42.264;24.536;2024-03-22T04:35:15;99596.94;;;0.81;100.00
39793;BME280;26080;42.264;24.536;2024-03-22T04:37:41;99601.25;;;0.73;100.00
39793;BME280;26080;42.264;24.536;2024-03-22T04:40:06;99607.28;;;0.70;100.00
39793;BME280;26080;42.264;24.536;2024-03-22T04:42:33;99602.13;;;0.67;100.00
39793;BME280;26080;42.264;24.536;2024-03-22T04:44:58;99609.00;;;0.68;100.00
39793;BME280;26080;42.264;24.536;2024-03-22T04:47:24;99605.50;;;0.81;100.00
39793;BME280;26080;42.264;24.536;2024-03-22T04:49:49;99607.25;;;0.82;100.00
39793;BME280;26080;42.264;24.536;2024-03-22T04:52:15;99611.53;;;0.85;100.00
39793;BME280;26080;42.264;24.536;2024-03-22T04:54:40;99614.06;;;0.99;100.00
39793;BME280;26080;42.264;24.536;2024-03-22T04:57:06;99624.34;;;1.11;100.00
39793;BME280;26080;42.264;24.536;2024-03-22T04:59:31;99620.91;;;1.07;100.00
39793;BME280;26080;42.264;24.536;2024-03-22T05:01:56;99609.66;;;1.28;100.00
39793;BME280;26080;42.264;24.536;2024-03-22T05:04:22;99614.75;;;1.36;100.00
39793;BME280;26080;42.264;24.536;2024-03-22T05:06:47;99620.72;;;1.52;100.00
39793;BME280;26080;42.264;24.536;2024-03-22T05:09:13;99618.16;;;1.42;100.00
39793;BME280;26080;42.264;24.536;2024-03-22T05:11:38;99623.34;;;1.41;100.00
39793;BME280;26080;42.264;24.536;2024-03-22T05:14:03;99619.84;;;1.48;100.00
39793;BME280;26080;42.264;24.536;2024-03-22T05:16:29;99628.38;;;1.61;100.00
39793;BME280;26080;42.264;24.536;2024-03-22T05:18:54;99630.09;;;1.65;100.00
39793;BME280;26080;42.264;24.536;2024-03-22T05:21:20;99628.31;;;1.73;100.00
39793;BME280;26080;42.264;24.536;2024-03-22T05:23:45;99629.03;;;1.90;100.00
39793;BME280;26080;42.264;24.536;2024-03-22T05:26:11;99630.59;;;2.13;100.00
39793;BME280;26080;42.264;24.536;2024-03-22T05:28:36;99640.88;;;2.23;100.00
39793;BME280;26080;42.264;24.536;2024-03-22T05:31:02;99641.75;;;2.22;100.00
39793;BME280;26080;42.264;24.536;2024-03-22T05:33:28;99632.25;;;2.23;100.00
39793;BME280;26080;42.264;24.536;2024-03-22T05:35:53;99646.81;;;2.30;100.00
39793;BME280;26080;42.264;24.536;2024-03-22T05:38:19;99644.19;;;2.37;100.00
39793;BME280;26080;42.264;24.536;2024-03-22T05:40:44;99634.59;;;2.50;100.00
39793;BME280;26080;42.264;24.536;2024-03-22T05:43:13;99632.75;;;2.60;100.00
39793;BME280;26080;42.264;24.536;2024-03-22T05:45:38;99630.91;;;2.73;100.00
39793;BME280;26080;42.264;24.536;2024-03-22T05:48:04;99628.16;;;2.91;100.00
39793;BME280;26080;42.264;24.536;2024-03-22T05:50:29;99626.25;;;3.05;100.00
39793;BME280;26080;42.264;24.536;2024-03-22T05:52:55;99627.78;;;3.21;100.00
39793;BME280;26080;42.264;24.536;2024-03-22T05:55:20;99638.63;;;3.49;100.00
39793;BME280;26080;42.264;24.536;2024-03-22T05:57:45;99649.59;;;3.68;100.00
39793;BME280;26080;42.264;24.536;2024-03-22T06:00:11;99655.59;;;3.72;100.00
39793;BME280;26080;42.264;24.536;2024-03-22T06:02:38;99664.00;;;3.89;100.00
39793;BME280;26080;42.264;24.536;2024-03-22T06:05:04;99661.97;;;4.08;100.00
39793;BME280;26080;42.264;24.536;2024-03-22T06:07:30;99662.59;;;4.22;100.00
39793;BME280;26080;42.264;24.536;2024-03-22T06:10:00;99628.91;;;4.22;100.00
39793;BME280;26080;42.264;24.536;2024-03-22T06:12:26;99664.63;;;4.57;100.00
39793;BME280;26080;42.264;24.536;2024-03-22T06:14:51;99670.38;;;4.74;100.00
39793;BME280;26080;42.264;24.536;2024-03-22T06:17:16;99672.84;;;4.82;100.00
39793;BME280;26080;42.264;24.536;2024-03-22T06:19:42;99674.31;;;4.97;100.00
39793;BME280;26080;42.264;24.536;2024-03-22T06:22:07;99667.19;;;5.06;100.00
39793;BME280;26080;42.264;24.536;2024-03-22T06:24:33;99660.25;;;5.09;100.00
39793;BME280;26080;42.264;24.536;2024-03-22T06:26:58;99663.38;;;5.24;100.00
39793;BME280;26080;42.264;24.536;2024-03-22T06:29:23;99660.69;;;5.29;100.00
39793;BME280;26080;42.264;24.536;2024-03-22T06:31:49;99672.59;;;5.39;100.00
39793;BME280;26080;42.264;24.536;2024-03-22T06:34:15;99672.16;;;5.60;100.00
39793;BME280;26080;42.264;24.536;2024-03-22T06:36:40;99672.66;;;5.78;100.00
39793;BME280;26080;42.264;24.536;2024-03-22T06:39:06;99674.13;;;5.91;100.00
39793;BME280;26080;42.264;24.536;2024-03-22T06:41:34;99675.75;;;5.95;100.00
39793;BME280;26080;42.264;24.536;2024-03-22T06:43:59;99676.47;;;6.03;100.00
39793;BME280;26080;42.264;24.536;2024-03-22T06:46:25;99672.16;;;6.01;100.00
39793;BME280;26080;42.264;24.536;2024-03-22T06:48:50;99672.94;;;6.06;100.00
39793;BME280;26080;42.264;24.536;2024-03-22T06:51:16;99674.19;;;6.25;100.00
39793;BME280;26080;42.264;24.536;2024-03-22T06:53:41;99674.59;;;6.45;100.00
39793;BME280;26080;42.264;24.536;2024-03-22T06:56:07;99669.97;;;6.55;100.00
39793;BME280;26080;42.264;24.536;2024-03-22T06:58:35;99671.47;;;6.65;100.00
39793;BME280;26080;42.264;24.536;2024-03-22T07:01:01;99667.00;;;6.70;100.00
39793;BME280;26080;42.264;24.536;2024-03-22T07:03:27;99671.00;;;6.83;100.00
39793;BME280;26080;42.264;24.536;2024-03-22T07:05:52;99661.19;;;6.93;100.00
39793;BME280;26080;42.264;24.536;2024-03-22T07:08:18;99668.88;;;6.98;100.00
39793;BME280;26080;42.264;24.536;2024-03-22T07:10:43;99658.13;;;7.10;100.00
39793;BME280;26080;42.264;24.536;2024-03-22T07:13:10;99657.88;;;7.19;100.00
39793;BME280;26080;42.264;24.536;2024-03-22T07:15:36;99652.41;;;7.28;100.00
39793;BME280;26080;42.264;24.536;2024-03-22T07:18:01;99651.53;;;7.29;100.00
39793;BME280;26080;42.264;24.536;2024-03-22T07:20:28;99661.41;;;7.48;100.00
39793;BME280;26080;42.264;24.536;2024-03-22T07:22:53;99658.59;;;7.55;100.00
39793;BME280;26080;42.264;24.536;2024-03-22T07:25:18;99654.03;;;7.62;100.00
39793;BME280;26080;42.264;24.536;2024-03-22T07:27:44;99663.31;;;7.72;100.00
39793;BME280;26080;42.264;24.536;2024-03-22T07:30:11;99646.81;;;7.71;100.00
39793;BME280;26080;42.264;24.536;2024-03-22T07:32:37;99664.63;;;7.85;100.00
39793;BME280;26080;42.264;24.536;2024-03-22T07:35:03;99654.13;;;7.88;100.00
39793;BME280;26080;42.264;24.536;2024-03-22T07:37:28;99658.00;;;8.03;100.00
39793;BME280;26080;42.264;24.536;2024-03-22T07:39:53;99663.97;;;8.07;100.00
39793;BME280;26080;42.264;24.536;2024-03-22T07:42:19;99665.22;;;8.21;100.00
39793;BME280;26080;42.264;24.536;2024-03-22T07:44:44;99635.09;;;8.13;100.00
39793;BME280;26080;42.264;24.536;2024-03-22T07:47:10;99659.38;;;8.43;100.00
39793;BME280;26080;42.264;24.536;2024-03-22T07:49:35;99661.56;;;8.55;100.00
39793;BME280;26080;42.264;24.536;2024-03-22T07:52:03;99608.97;;;8.41;100.00
39793;BME280;26080;42.264;24.536;2024-03-22T07:54:30;99657.66;;;8.68;100.00
39793;BME280;26080;42.264;24.536;2024-03-22T07:56:55;99654.75;;;8.76;100.00
39793;BME280;26080;42.264;24.536;2024-03-22T07:59:21;99654.34;;;8.88;100.00
39793;BME280;26080;42.264;24.536;2024-03-22T08:01:46;99658.59;;;8.90;100.00
39793;BME280;26080;42.264;24.536;2024-03-22T08:04:12;99653.81;;;9.03;98.50
39793;BME280;26080;42.264;24.536;2024-03-22T08:06:37;99655.41;;;9.07;98.49
39793;BME280;26080;42.264;24.536;2024-03-22T08:09:03;99635.69;;;8.99;96.00
39793;BME280;26080;42.264;24.536;2024-03-22T08:11:28;99653.03;;;9.25;95.72
39793;BME280;26080;42.264;24.536;2024-03-22T08:13:53;99646.66;;;9.32;94.96
39793;BME280;26080;42.264;24.536;2024-03-22T08:16:26;99649.28;;;9.55;94.82
39793;BME280;26080;42.264;24.536;2024-03-22T08:18:52;99658.38;;;9.68;92.59
39793;BME280;26080;42.264;24.536;2024-03-22T08:21:18;99655.56;;;9.74;91.46
39793;BME280;26080;42.264;24.536;2024-03-22T08:23:43;99654.50;;;9.78;88.43
39793;BME280;26080;42.264;24.536;2024-03-22T08:26:08;99655.75;;;9.92;90.40
39793;BME280;26080;42.264;24.536;2024-03-22T08:28:34;99658.88;;;10.01;89.36
39793;BME280;26080;42.264;24.536;2024-03-22T08:31:03;99652.59;;;10.05;87.40
39793;BME280;26080;42.264;24.536;2024-03-22T08:33:29;99651.25;;;10.17;86.25
39793;BME280;26080;42.264;24.536;2024-03-22T08:35:54;99656.13;;;10.26;83.11
39793;BME280;26080;42.264;24.536;2024-03-22T08:38:19;99656.13;;;10.26;83.51
39793;BME280;26080;42.264;24.536;2024-03-22T08:40:45;99649.41;;;10.41;80.02
39793;BME280;26080;42.264;24.536;2024-03-22T08:43:10;99649.63;;;10.36;81.29
39793;BME280;26080;42.264;24.536;2024-03-22T08:45:36;99648.34;;;10.47;83.88
39793;BME280;26080;42.264;24.536;2024-03-22T08:48:01;99645.47;;;10.73;83.25
39793;BME280;26080;42.264;24.536;2024-03-22T08:50:27;99645.06;;;10.82;82.50
39793;BME280;26080;42.264;24.536;2024-03-22T08:52:52;99638.66;;;10.89;80.59
39793;BME280;26080;42.264;24.536;2024-03-22T08:55:18;99646.13;;;10.98;81.55
39793;BME280;26080;42.264;24.536;2024-03-22T08:57:43;99640.16;;;11.15;81.03
39793;BME280;26080;42.264;24.536;2024-03-22T09:00:09;99640.72;;;11.22;78.96
39793;BME280;26080;42.264;24.536;2024-03-22T09:02:36;99630.97;;;11.25;79.36
39793;BME280;26080;42.264;24.536;2024-03-22T09:05:04;99637.75;;;11.11;74.47
39793;BME280;26080;42.264;24.536;2024-03-22T09:07:30;99630.75;;;11.10;74.35
39793;BME280;26080;42.264;24.536;2024-03-22T09:09:55;99628.16;;;11.10;74.58
39793;BME280;26080;42.264;24.536;2024-03-22T09:12:21;99633.47;;;11.08;73.88
39793;BME280;26080;42.264;24.536;2024-03-22T09:14:46;99634.13;;;11.13;74.46
39793;BME280;26080;42.264;24.536;2024-03-22T09:17:11;99622.09;;;11.28;71.16
39793;BME280;26080;42.264;24.536;2024-03-22T09:19:37;99622.25;;;11.44;69.43
39793;BME280;26080;42.264;24.536;2024-03-22T09:22:02;99590.63;;;11.47;69.88
39793;BME280;26080;42.264;24.536;2024-03-22T09:24:28;99583.41;;;11.52;69.65
39793;BME280;26080;42.264;24.536;2024-03-22T09:26:53;99602.69;;;11.70;66.46
39793;BME280;26080;42.264;24.536;2024-03-22T09:29:19;99599.53;;;11.82;65.16
39793;BME280;26080;42.264;24.536;2024-03-22T09:31:47;99609.16;;;11.81;66.71
39793;BME280;26080;42.264;24.536;2024-03-22T09:34:17;99585.03;;;11.73;64.53
39793;BME280;26080;42.264;24.536;2024-03-22T09:36:42;99610.13;;;11.98;63.99
39793;BME280;26080;42.264;24.536;2024-03-22T09:39:07;99608.97;;;12.03;63.32
39793;BME280;26080;42.264;24.536;2024-03-22T09:41:40;99605.59;;;12.19;64.46
39793;BME280;26080;42.264;24.536;2024-03-22T09:44:12;99607.84;;;11.90;62.39
39793;BME280;26080;42.264;24.536;2024-03-22T09:46:39;99601.13;;;11.66;63.36
39793;BME280;26080;42.264;24.536;2024-03-22T09:49:06;99598.84;;;11.77;65.17
39793;BME280;26080;42.264;24.536;2024-03-22T09:51:33;99599.66;;;11.79;62.43
39793;BME280;26080;42.264;24.536;2024-03-22T09:54:00;99584.94;;;11.75;63.88
39793;BME280;26080;42.264;24.536;2024-03-22T09:56:27;99596.00;;;12.00;71.13
39793;BME280;26080;42.264;24.536;2024-03-22T09:58:55;99592.78;;;12.12;69.59
39793;BME280;26080;42.264;24.536;2024-03-22T10:01:21;99589.56;;;12.25;71.01
39793;BME280;26080;42.264;24.536;2024-03-22T10:03:47;99582.13;;;12.33;70.18
39793;BME280;26080;42.264;24.536;2024-03-22T10:06:13;99584.28;;;12.59;71.46
39793;BME280;26080;42.264;24.536;2024-03-22T10:08:39;99574.88;;;12.55;64.26
39793;BME280;26080;42.264;24.536;2024-03-22T10:11:04;99579.91;;;12.42;63.39
39793;BME280;26080;42.264;24.536;2024-03-22T10:13:30;99546.63;;;12.08;64.35
39793;BME280;26080;42.264;24.536;2024-03-22T10:15:57;99548.31;;;12.09;63.50
39793;BME280;26080;42.264;24.536;2024-03-22T10:18:22;99576.28;;;12.28;64.93
39793;BME280;26080;42.264;24.536;2024-03-22T10:20:59;99568.00;;;12.18;64.43
39793;BME280;26080;42.264;24.536;2024-03-22T10:23:25;99576.19;;;12.29;65.68
39793;BME280;26080;42.264;24.536;2024-03-22T10:25:51;99515.13;;;12.08;65.45
39793;BME280;26080;42.264;24.536;2024-03-22T10:28:16;99558.03;;;12.59;65.69
39793;BME280;26080;42.264;24.536;2024-03-22T10:30:43;99517.63;;;12.44;63.26
39793;BME280;26080;42.264;24.536;2024-03-22T10:33:10;99548.50;;;12.74;61.03
39793;BME280;26080;42.264;24.536;2024-03-22T10:35:36;99542.94;;;12.80;63.05
39793;BME280;26080;42.264;24.536;2024-03-22T10:38:02;99541.75;;;12.86;61.92
39793;BME280;26080;42.264;24.536;2024-03-22T10:40:33;99544.91;;;12.92;63.11
39793;BME280;26080;42.264;24.536;2024-03-22T10:43:00;99531.34;;;13.00;60.37
39793;BME280;26080;42.264;24.536;2024-03-22T10:45:28;99535.53;;;13.04;58.37
39793;BME280;26080;42.264;24.536;2024-03-22T10:47:55;99528.16;;;13.11;60.55
39793;BME280;26080;42.264;24.536;2024-03-22T10:50:22;99527.13;;;13.13;54.90
39793;BME280;26080;42.264;24.536;2024-03-22T10:52:52;99518.19;;;13.00;51.02
39793;BME280;26080;42.264;24.536;2024-03-22T10:55:33;99506.81;;;12.84;53.13
39793;BME280;26080;42.264;24.536;2024-03-22T10:57:59;99506.91;;;12.82;53.28
39793;BME280;26080;42.264;24.536;2024-03-22T11:00:32;99502.31;;;12.86;53.23
39793;BME280;26080;42.264;24.536;2024-03-22T11:02:59;99501.06;;;12.93;53.05
39793;BME280;26080;42.264;24.536;2024-03-22T11:05:25;99492.56;;;12.88;52.26
39793;BME280;26080;42.264;24.536;2024-03-22T11:08:04;99488.25;;;12.87;51.99
39793;BME280;26080;42.264;24.536;2024-03-22T11:10:31;99468.41;;;12.81;51.59
39793;BME280;26080;42.264;24.536;2024-03-22T11:13:02;99486.75;;;12.98;52.93
39793;BME280;26080;42.264;24.536;2024-03-22T11:15:31;99485.06;;;13.13;53.83
39793;BME280;26080;42.264;24.536;2024-03-22T11:17:57;99479.59;;;13.33;51.74
39793;BME280;26080;42.264;24.536;2024-03-22T11:20:23;99475.09;;;13.36;50.17
39793;BME280;26080;42.264;24.536;2024-03-22T11:22:49;99471.88;;;13.30;50.42
39793;BME280;26080;42.264;24.536;2024-03-22T11:25:16;99472.28;;;13.23;49.56
39793;BME280;26080;42.264;24.536;2024-03-22T11:27:41;99471.03;;;13.30;49.86
39793;BME280;26080;42.264;24.536;2024-03-22T11:30:07;99463.19;;;13.28;48.30
39793;BME280;26080;42.264;24.536;2024-03-22T11:32:33;99462.78;;;13.20;49.39
39793;BME280;26080;42.264;24.536;2024-03-22T11:35:09;99454.91;;;13.20;49.55
39793;BME280;26080;42.264;24.536;2024-03-22T11:37:34;99459.16;;;13.23;47.33
39793;BME280;26080;42.264;24.536;2024-03-22T11:40:00;99451.16;;;13.24;49.87
39793;BME280;26080;42.264;24.536;2024-03-22T11:42:28;99454.06;;;13.36;50.04
39793;BME280;26080;42.264;24.536;2024-03-22T11:44:54;99457.78;;;13.31;48.16
39793;BME280;26080;42.264;24.536;2024-03-22T11:47:19;99456.25;;;13.27;48.86
39793;BME280;26080;42.264;24.536;2024-03-22T11:49:44;99447.28;;;13.31;49.84
39793;BME280;26080;42.264;24.536;2024-03-22T11:52:10;99440.38;;;13.45;51.59
39793;BME280;26080;42.264;24.536;2024-03-22T11:54:35;99436.91;;;13.44;47.58
39793;BME280;26080;42.264;24.536;2024-03-22T11:57:02;99439.09;;;13.52;48.91
39793;BME280;26080;42.264;24.536;2024-03-22T11:59:29;99435.94;;;13.61;48.15
39793;BME280;26080;42.264;24.536;2024-03-22T12:01:55;99424.81;;;13.72;49.46
39793;BME280;26080;42.264;24.536;2024-03-22T12:04:20;99424.44;;;13.78;51.36
39793;BME280;26080;42.264;24.536;2024-03-22T12:06:46;99413.47;;;13.85;48.67
39793;BME280;26080;42.264;24.536;2024-03-22T12:09:12;99421.75;;;14.08;50.76
39793;BME280;26080;42.264;24.536;2024-03-22T12:11:39;99398.06;;;14.08;51.60
39793;BME280;26080;42.264;24.536;2024-03-22T12:14:05;99382.75;;;14.14;45.39
39793;BME280;26080;42.264;24.536;2024-03-22T12:16:30;99411.66;;;14.30;48.17
39793;BME280;26080;42.264;24.536;2024-03-22T12:18:55;99406.38;;;14.30;44.90
39793;BME280;26080;42.264;24.536;2024-03-22T12:21:21;99406.91;;;14.21;45.41
39793;BME280;26080;42.264;24.536;2024-03-22T12:23:46;99404.75;;;14.13;45.23
39793;BME280;26080;42.264;24.536;2024-03-22T12:26:12;99382.25;;;14.08;46.62
39793;BME280;26080;42.264;24.536;2024-03-22T12:28:38;99406.56;;;14.27;47.15
39793;BME280;26080;42.264;24.536;2024-03-22T12:31:04;99398.19;;;14.35;45.14
39793;BME280;26080;42.264;24.536;2024-03-22T12:33:30;99386.16;;;14.31;45.44
39793;BME280;26080;42.264;24.536;2024-03-22T12:35:55;99390.19;;;14.36;45.08
39793;BME280;26080;42.264;24.536;2024-03-22T12:38:20;99389.22;;;14.23;44.55
39793;BME280;26080;42.264;24.536;2024-03-22T12:40:46;99376.16;;;14.21;44.57
39793;BME280;26080;42.264;24.536;2024-03-22T12:43:11;99377.00;;;14.22;44.11